sensor_id;sensor_type;location;lat;lon;timestamp;P1;durP1;ratioP1;P2;durP2;ratioP2
1987;SDS011;12775;46.994;15.498;2023-05-07T00:01:36;9.22;;;8.42;;
1987;SDS011;12775;46.994;15.498;2023-05-07T00:04:03;9.04;;;8.34;;
1987;SDS011;12775;46.994;15.498;2023-05-07T00:06:31;9.92;;;9.02;;
1987;SDS011;12775;46.994;15.498;2023-05-07T00:08:57;9.74;;;8.90;;
1987;SDS011;12775;46.994;15.498;2023-05-07T00:11:24;10.80;;;8.76;;
1987;SDS011;12775;46.994;15.498;2023-05-07T00:13:51;8.40;;;7.70;;
1987;SDS011;12775;46.994;15.498;2023-05-07T00:16:19;8.90;;;8.16;;
1987;SDS011;12775;46.994;15.498;2023-05-07T00:18:46;7.80;;;7.12;;
1987;SDS011;12775;46.994;15.498;2023-05-07T00:21:13;8.20;;;7.40;;
1987;SDS011;12775;46.994;15.498;2023-05-07T00:23:40;8.78;;;7.88;;
1987;SDS011;12775;46.994;15.498;2023-05-07T00:26:07;8.82;;;8.00;;
1987;SDS011;12775;46.994;15.498;2023-05-07T00:28:33;8.70;;;7.84;;
1987;SDS011;12775;46.994;15.498;2023-05-07T00:31:00;8.96;;;7.34;;
1987;SDS011;12775;46.994;15.498;2023-05-07T00:33:26;8.32;;;7.60;;
1987;SDS011;12775;46.994;15.498;2023-05-07T00:35:53;9.36;;;7.60;;
1987;SDS011;12775;46.994;15.498;2023-05-07T00:38:20;9.60;;;8.68;;
1987;SDS011;12775;46.994;15.498;2023-05-07T00:40:48;9.84;;;8.54;;
1987;SDS011;12775;46.994;15.498;2023-05-07T00:43:15;10.30;;;9.30;;
1987;SDS011;12775;46.994;15.498;2023-05-07T00:45:42;11.06;;;9.10;;
1987;SDS011;12775;46.994;15.498;2023-05-07T00:48:10;10.14;;;9.14;;
1987;SDS011;12775;46.994;15.498;2023-05-07T00:50:37;10.18;;;8.98;;
1987;SDS011;12775;46.994;15.498;2023-05-07T00:53:04;10.08;;;9.22;;
1987;SDS011;12775;46.994;15.498;2023-05-07T00:55:30;9.42;;;8.62;;
1987;SDS011;12775;46.994;15.498;2023-05-07T00:57:57;10.82;;;9.36;;
1987;SDS011;12775;46.994;15.498;2023-05-07T01:00:24;11.68;;;9.90;;
1987;SDS011;12775;46.994;15.498;2023-05-07T01:02:51;12.00;;;9.92;;
1987;SDS011;12775;46.994;15.498;2023-05-07T01:05:18;11.34;;;10.14;;
1987;SDS011;12775;46.994;15.498;2023-05-07T01:07:46;13.62;;;11.74;;
1987;SDS011;12775;46.994;15.498;2023-05-07T01:10:14;11.56;;;10.32;;
1987;SDS011;12775;46.994;15.498;2023-05-07T01:12:41;12.18;;;11.02;;
1987;SDS011;12775;46.994;15.498;2023-05-07T01:15:07;10.86;;;9.60;;
1987;SDS011;12775;46.994;15.498;2023-05-07T01:17:35;12.44;;;10.48;;
1987;SDS011;12775;46.994;15.498;2023-05-07T01:20:02;10.62;;;9.28;;
1987;SDS011;12775;46.994;15.498;2023-05-07T01:22:30;12.76;;;10.82;;
1987;SDS011;12775;46.994;15.498;2023-05-07T01:24:57;13.40;;;12.18;;
1987;SDS011;12775;46.994;15.498;2023-05-07T01:27:23;11.14;;;10.14;;
1987;SDS011;12775;46.994;15.498;2023-05-07T01:29:50;10.54;;;9.62;;
1987;SDS011;12775;46.994;15.498;2023-05-07T01:32:19;10.08;;;9.16;;
1987;SDS011;12775;46.994;15.498;2023-05-07T01:34:44;8.88;;;8.18;;
1987;SDS011;12775;46.994;15.498;2023-05-07T01:37:10;11.08;;;10.18;;
1987;SDS011;12775;46.994;15.498;2023-05-07T01:39:38;11.46;;;10.38;;
1987;SDS011;12775;46.994;15.498;2023-05-07T01:42:04;10.48;;;9.50;;
1987;SDS011;12775;46.994;15.498;2023-05-07T01:44:32;10.80;;;9.90;;
1987;SDS011;12775;46.994;15.498;2023-05-07T01:46:58;12.90;;;11.64;;
1987;SDS011;12775;46.994;15.498;2023-05-07T01:49:26;10.98;;;9.94;;
1987;SDS011;12775;46.994;15.498;2023-05-07T01:51:53;12.04;;;10.46;;
1987;SDS011;12775;46.994;15.498;2023-05-07T01:54:24;11.34;;;9.96;;
1987;SDS011;12775;46.994;15.498;2023-05-07T01:56:47;11.38;;;10.24;;
1987;SDS011;12775;46.994;15.498;2023-05-07T01:59:14;12.08;;;10.98;;
1987;SDS011;12775;46.994;15.498;2023-05-07T02:01:41;11.26;;;10.16;;
1987;SDS011;12775;46.994;15.498;2023-05-07T02:04:07;12.64;;;11.04;;
1987;SDS011;12775;46.994;15.498;2023-05-07T02:06:34;11.16;;;10.20;;
1987;SDS011;12775;46.994;15.498;2023-05-07T02:09:01;11.84;;;10.82;;
1987;SDS011;12775;46.994;15.498;2023-05-07T02:11:27;12.64;;;11.54;;
1987;SDS011;12775;46.994;15.498;2023-05-07T02:13:55;12.58;;;10.94;;
1987;SDS011;12775;46.994;15.498;2023-05-07T02:16:22;12.74;;;11.38;;
1987;SDS011;12775;46.994;15.498;2023-05-07T02:18:49;12.86;;;11.76;;
1987;SDS011;12775;46.994;15.498;2023-05-07T02:21:16;12.90;;;11.54;;
1987;SDS011;12775;46.994;15.498;2023-05-07T02:23:43;13.10;;;11.92;;
1987;SDS011;12775;46.994;15.498;2023-05-07T02:26:10;12.32;;;11.22;;
1987;SDS011;12775;46.994;15.498;2023-05-07T02:28:36;12.04;;;11.04;;
1987;SDS011;12775;46.994;15.498;2023-05-07T02:31:03;13.60;;;12.36;;
1987;SDS011;12775;46.994;15.498;2023-05-07T02:33:30;13.24;;;11.98;;
1987;SDS011;12775;46.994;15.498;2023-05-07T02:35:57;13.70;;;12.40;;
1987;SDS011;12775;46.994;15.498;2023-05-07T02:38:23;13.72;;;12.34;;
1987;SDS011;12775;46.994;15.498;2023-05-07T02:40:50;14.62;;;12.56;;
1987;SDS011;12775;46.994;15.498;2023-05-07T02:43:18;12.98;;;11.82;;
1987;SDS011;12775;46.994;15.498;2023-05-07T02:45:45;13.10;;;11.78;;
1987;SDS011;12775;46.994;15.498;2023-05-07T02:48:12;13.18;;;11.56;;
1987;SDS011;12775;46.994;15.498;2023-05-07T02:50:39;14.26;;;12.78;;
1987;SDS011;12775;46.994;15.498;2023-05-07T02:53:05;15.84;;;14.14;;
1987;SDS011;12775;46.994;15.498;2023-05-07T02:55:32;22.86;;;13.92;;
1987;SDS011;12775;46.994;15.498;2023-05-07T02:57:58;30.14;;;12.76;;
1987;SDS011;12775;46.994;15.498;2023-05-07T03:00:25;41.00;;;13.44;;
1987;SDS011;12775;46.994;15.498;2023-05-07T03:02:52;39.14;;;13.40;;
1987;SDS011;12775;46.994;15.498;2023-05-07T03:05:20;41.24;;;14.20;;
1987;SDS011;12775;46.994;15.498;2023-05-07T03:07:48;37.26;;;13.92;;
1987;SDS011;12775;46.994;15.498;2023-05-07T03:10:15;34.30;;;13.46;;
1987;SDS011;12775;46.994;15.498;2023-05-07T03:12:42;20.00;;;12.12;;
1987;SDS011;12775;46.994;15.498;2023-05-07T03:15:09;25.20;;;12.80;;
1987;SDS011;12775;46.994;15.498;2023-05-07T03:17:37;26.48;;;14.30;;
1987;SDS011;12775;46.994;15.498;2023-05-07T03:20:03;15.52;;;11.40;;
1987;SDS011;12775;46.994;15.498;2023-05-07T03:22:31;41.44;;;13.64;;
1987;SDS011;12775;46.994;15.498;2023-05-07T03:24:57;22.40;;;14.24;;
1987;SDS011;12775;46.994;15.498;2023-05-07T03:27:24;12.66;;;11.14;;
1987;SDS011;12775;46.994;15.498;2023-05-07T03:29:53;13.04;;;11.78;;
1987;SDS011;12775;46.994;15.498;2023-05-07T03:32:20;12.88;;;9.92;;
1987;SDS011;12775;46.994;15.498;2023-05-07T03:34:47;11.04;;;9.94;;
1987;SDS011;12775;46.994;15.498;2023-05-07T03:37:14;9.74;;;8.78;;
1987;SDS011;12775;46.994;15.498;2023-05-07T03:39:41;11.18;;;9.94;;
1987;SDS011;12775;46.994;15.498;2023-05-07T03:42:08;15.02;;;11.72;;
1987;SDS011;12775;46.994;15.498;2023-05-07T03:44:35;13.00;;;10.12;;
1987;SDS011;12775;46.994;15.498;2023-05-07T03:47:02;10.56;;;9.50;;
1987;SDS011;12775;46.994;15.498;2023-05-07T03:49:28;9.60;;;8.70;;
1987;SDS011;12775;46.994;15.498;2023-05-07T03:51:54;9.50;;;8.64;;
1987;SDS011;12775;46.994;15.498;2023-05-07T03:54:21;9.22;;;8.42;;
1987;SDS011;12775;46.994;15.498;2023-05-07T03:56:48;11.00;;;9.88;;
1987;SDS011;12775;46.994;15.498;2023-05-07T03:59:15;10.28;;;9.14;;
1987;SDS011;12775;46.994;15.498;2023-05-07T04:01:43;30.78;;;11.32;;
1987;SDS011;12775;46.994;15.498;2023-05-07T04:04:09;8.64;;;7.80;;
1987;SDS011;12775;46.994;15.498;2023-05-07T04:06:37;8.22;;;7.62;;
1987;SDS011;12775;46.994;15.498;2023-05-07T04:09:04;10.82;;;8.18;;
1987;SDS011;12775;46.994;15.498;2023-05-07T04:11:30;8.92;;;8.14;;
1987;SDS011;12775;46.994;15.498;2023-05-07T04:13:57;9.24;;;8.44;;
1987;SDS011;12775;46.994;15.498;2023-05-07T04:16:24;8.94;;;8.20;;
1987;SDS011;12775;46.994;15.498;2023-05-07T04:18:51;10.74;;;8.00;;
1987;SDS011;12775;46.994;15.498;2023-05-07T04:21:19;10.96;;;9.86;;
1987;SDS011;12775;46.994;15.498;2023-05-07T04:23:46;10.68;;;9.78;;
1987;SDS011;12775;46.994;15.498;2023-05-07T04:26:14;10.32;;;9.32;;
1987;SDS011;12775;46.994;15.498;2023-05-07T04:28:41;10.80;;;9.70;;
1987;SDS011;12775;46.994;15.498;2023-05-07T04:31:08;11.58;;;10.38;;
1987;SDS011;12775;46.994;15.498;2023-05-07T04:33:34;10.34;;;9.44;;
1987;SDS011;12775;46.994;15.498;2023-05-07T04:36:01;10.70;;;9.76;;
1987;SDS011;12775;46.994;15.498;2023-05-07T04:38:29;10.68;;;9.68;;
1987;SDS011;12775;46.994;15.498;2023-05-07T04:40:55;9.86;;;9.06;;
1987;SDS011;12775;46.994;15.498;2023-05-07T04:43:22;11.74;;;10.54;;
1987;SDS011;12775;46.994;15.498;2023-05-07T04:45:50;10.90;;;9.90;;
1987;SDS011;12775;46.994;15.498;2023-05-07T04:48:17;8.78;;;7.98;;
1987;SDS011;12775;46.994;15.498;2023-05-07T04:50:46;11.44;;;8.88;;
1987;SDS011;12775;46.994;15.498;2023-05-07T04:53:11;10.26;;;9.42;;
1987;SDS011;12775;46.994;15.498;2023-05-07T04:55:38;9.22;;;8.36;;
1987;SDS011;12775;46.994;15.498;2023-05-07T04:58:05;10.72;;;9.82;;
1987;SDS011;12775;46.994;15.498;2023-05-07T05:00:31;9.96;;;8.28;;
1987;SDS011;12775;46.994;15.498;2023-05-07T05:03:00;8.16;;;7.46;;
1987;SDS011;12775;46.994;15.498;2023-05-07T05:05:27;9.28;;;8.44;;
1987;SDS011;12775;46.994;15.498;2023-05-07T05:07:54;8.82;;;7.94;;
1987;SDS011;12775;46.994;15.498;2023-05-07T05:10:21;10.06;;;7.68;;
1987;SDS011;12775;46.994;15.498;2023-05-07T05:12:47;7.38;;;6.78;;
1987;SDS011;12775;46.994;15.498;2023-05-07T05:15:15;9.34;;;8.48;;
1987;SDS011;12775;46.994;15.498;2023-05-07T05:17:42;7.92;;;7.32;;
1987;SDS011;12775;46.994;15.498;2023-05-07T05:20:09;8.02;;;6.20;;
1987;SDS011;12775;46.994;15.498;2023-05-07T05:22:36;7.16;;;6.56;;
1987;SDS011;12775;46.994;15.498;2023-05-07T05:25:03;7.18;;;6.58;;
1987;SDS011;12775;46.994;15.498;2023-05-07T05:27:30;6.58;;;6.00;;
1987;SDS011;12775;46.994;15.498;2023-05-07T05:29:57;8.78;;;8.08;;
1987;SDS011;12775;46.994;15.498;2023-05-07T05:32:24;6.66;;;6.16;;
1987;SDS011;12775;46.994;15.498;2023-05-07T05:34:51;5.38;;;4.96;;
1987;SDS011;12775;46.994;15.498;2023-05-07T05:37:17;5.26;;;4.76;;
1987;SDS011;12775;46.994;15.498;2023-05-07T05:39:44;5.80;;;5.30;;
1987;SDS011;12775;46.994;15.498;2023-05-07T05:42:10;6.12;;;4.52;;
1987;SDS011;12775;46.994;15.498;2023-05-07T05:44:37;5.30;;;4.90;;
1987;SDS011;12775;46.994;15.498;2023-05-07T05:47:04;6.44;;;4.90;;
1987;SDS011;12775;46.994;15.498;2023-05-07T05:49:30;4.78;;;4.38;;
1987;SDS011;12775;46.994;15.498;2023-05-07T05:51:57;4.98;;;4.58;;
1987;SDS011;12775;46.994;15.498;2023-05-07T05:54:23;5.06;;;4.58;;
1987;SDS011;12775;46.994;15.498;2023-05-07T05:56:50;5.00;;;4.60;;
1987;SDS011;12775;46.994;15.498;2023-05-07T05:59:17;3.80;;;3.48;;
1987;SDS011;12775;46.994;15.498;2023-05-07T06:01:46;5.36;;;4.46;;
1987;SDS011;12775;46.994;15.498;2023-05-07T06:04:12;3.82;;;3.52;;
1987;SDS011;12775;46.994;15.498;2023-05-07T06:06:39;4.96;;;4.42;;
1987;SDS011;12775;46.994;15.498;2023-05-07T06:09:06;4.38;;;4.08;;
1987;SDS011;12775;46.994;15.498;2023-05-07T06:11:32;3.82;;;3.38;;
1987;SDS011;12775;46.994;15.498;2023-05-07T06:13:59;3.96;;;3.58;;
1987;SDS011;12775;46.994;15.498;2023-05-07T06:16:25;3.56;;;3.18;;
1987;SDS011;12775;46.994;15.498;2023-05-07T06:18:52;3.56;;;3.30;;
1987;SDS011;12775;46.994;15.498;2023-05-07T06:21:19;4.18;;;3.88;;
1987;SDS011;12775;46.994;15.498;2023-05-07T06:23:47;3.62;;;3.42;;
1987;SDS011;12775;46.994;15.498;2023-05-07T06:26:14;3.92;;;3.64;;
1987;SDS011;12775;46.994;15.498;2023-05-07T06:28:41;5.10;;;4.60;;
1987;SDS011;12775;46.994;15.498;2023-05-07T06:31:14;4.10;;;3.80;;
1987;SDS011;12775;46.994;15.498;2023-05-07T06:33:40;5.60;;;3.76;;
1987;SDS011;12775;46.994;15.498;2023-05-07T06:36:08;3.60;;;3.40;;
1987;SDS011;12775;46.994;15.498;2023-05-07T06:38:35;3.78;;;3.40;;
1987;SDS011;12775;46.994;15.498;2023-05-07T06:41:02;4.26;;;3.86;;
1987;SDS011;12775;46.994;15.498;2023-05-07T06:43:28;4.64;;;4.24;;
1987;SDS011;12775;46.994;15.498;2023-05-07T06:45:55;4.14;;;3.78;;
1987;SDS011;12775;46.994;15.498;2023-05-07T06:48:21;5.34;;;3.54;;
1987;SDS011;12775;46.994;15.498;2023-05-07T06:50:48;4.12;;;3.82;;
1987;SDS011;12775;46.994;15.498;2023-05-07T06:53:15;4.40;;;4.00;;
1987;SDS011;12775;46.994;15.498;2023-05-07T06:55:42;3.92;;;3.62;;
1987;SDS011;12775;46.994;15.498;2023-05-07T06:58:08;5.02;;;4.30;;
1987;SDS011;12775;46.994;15.498;2023-05-07T07:00:35;4.96;;;4.38;;
1987;SDS011;12775;46.994;15.498;2023-05-07T07:03:01;4.64;;;3.86;;
1987;SDS011;12775;46.994;15.498;2023-05-07T07:05:29;4.64;;;4.24;;
1987;SDS011;12775;46.994;15.498;2023-05-07T07:07:55;4.56;;;3.96;;
1987;SDS011;12775;46.994;15.498;2023-05-07T07:10:22;4.68;;;4.18;;
1987;SDS011;12775;46.994;15.498;2023-05-07T07:12:49;4.16;;;3.86;;
1987;SDS011;12775;46.994;15.498;2023-05-07T07:15:16;4.08;;;3.78;;
1987;SDS011;12775;46.994;15.498;2023-05-07T07:17:43;4.58;;;4.18;;
1987;SDS011;12775;46.994;15.498;2023-05-07T07:20:09;3.72;;;3.42;;
1987;SDS011;12775;46.994;15.498;2023-05-07T07:22:36;4.78;;;4.02;;
1987;SDS011;12775;46.994;15.498;2023-05-07T07:25:03;3.72;;;3.48;;
1987;SDS011;12775;46.994;15.498;2023-05-07T07:27:31;4.30;;;3.90;;
1987;SDS011;12775;46.994;15.498;2023-05-07T07:29:57;4.24;;;3.84;;
1987;SDS011;12775;46.994;15.498;2023-05-07T07:32:24;3.20;;;2.90;;
1987;SDS011;12775;46.994;15.498;2023-05-07T07:34:50;4.02;;;3.72;;
1987;SDS011;12775;46.994;15.498;2023-05-07T07:37:17;4.22;;;3.92;;
1987;SDS011;12775;46.994;15.498;2023-05-07T07:39:44;4.72;;;3.74;;
1987;SDS011;12775;46.994;15.498;2023-05-07T07:42:10;3.68;;;3.38;;
1987;SDS011;12775;46.994;15.498;2023-05-07T07:44:38;4.06;;;3.50;;
1987;SDS011;12775;46.994;15.498;2023-05-07T07:47:04;4.30;;;3.50;;
1987;SDS011;12775;46.994;15.498;2023-05-07T07:49:31;4.58;;;4.18;;
1987;SDS011;12775;46.994;15.498;2023-05-07T07:51:58;4.18;;;3.88;;
1987;SDS011;12775;46.994;15.498;2023-05-07T07:54:26;5.14;;;4.64;;
1987;SDS011;12775;46.994;15.498;2023-05-07T07:56:52;3.92;;;3.62;;
1987;SDS011;12775;46.994;15.498;2023-05-07T07:59:20;4.42;;;4.10;;
1987;SDS011;12775;46.994;15.498;2023-05-07T08:01:48;4.58;;;4.18;;
1987;SDS011;12775;46.994;15.498;2023-05-07T08:04:14;4.94;;;4.58;;
1987;SDS011;12775;46.994;15.498;2023-05-07T08:06:41;4.72;;;4.18;;
1987;SDS011;12775;46.994;15.498;2023-05-07T08:09:08;5.28;;;4.78;;
1987;SDS011;12775;46.994;15.498;2023-05-07T08:11:35;5.28;;;4.70;;
1987;SDS011;12775;46.994;15.498;2023-05-07T08:14:02;4.52;;;4.22;;
1987;SDS011;12775;46.994;15.498;2023-05-07T08:16:28;5.26;;;4.86;;
1987;SDS011;12775;46.994;15.498;2023-05-07T08:18:55;4.72;;;4.32;;
1987;SDS011;12775;46.994;15.498;2023-05-07T08:21:22;4.38;;;3.98;;
1987;SDS011;12775;46.994;15.498;2023-05-07T08:23:48;4.70;;;4.38;;
1987;SDS011;12775;46.994;15.498;2023-05-07T08:26:16;4.48;;;4.18;;
1987;SDS011;12775;46.994;15.498;2023-05-07T08:28:42;4.44;;;3.94;;
1987;SDS011;12775;46.994;15.498;2023-05-07T08:31:09;5.02;;;4.56;;
1987;SDS011;12775;46.994;15.498;2023-05-07T08:33:35;4.48;;;4.12;;
1987;SDS011;12775;46.994;15.498;2023-05-07T08:36:03;5.56;;;5.06;;
1987;SDS011;12775;46.994;15.498;2023-05-07T08:38:30;3.94;;;3.64;;
1987;SDS011;12775;46.994;15.498;2023-05-07T08:40:57;5.52;;;4.48;;
1987;SDS011;12775;46.994;15.498;2023-05-07T08:43:25;5.30;;;4.90;;
1987;SDS011;12775;46.994;15.498;2023-05-07T08:45:53;5.10;;;4.70;;
1987;SDS011;12775;46.994;15.498;2023-05-07T08:48:19;4.86;;;4.46;;
1987;SDS011;12775;46.994;15.498;2023-05-07T08:50:46;5.00;;;4.60;;
1987;SDS011;12775;46.994;15.498;2023-05-07T08:53:12;4.86;;;4.42;;
1987;SDS011;12775;46.994;15.498;2023-05-07T08:55:40;7.66;;;3.84;;
1987;SDS011;12775;46.994;15.498;2023-05-07T08:58:07;5.14;;;4.74;;
1987;SDS011;12775;46.994;15.498;2023-05-07T09:00:36;4.10;;;3.80;;
1987;SDS011;12775;46.994;15.498;2023-05-07T09:03:02;5.46;;;4.72;;
1987;SDS011;12775;46.994;15.498;2023-05-07T09:05:29;5.10;;;4.70;;
1987;SDS011;12775;46.994;15.498;2023-05-07T09:07:58;4.50;;;4.20;;
1987;SDS011;12775;46.994;15.498;2023-05-07T09:10:22;5.20;;;4.30;;
1987;SDS011;12775;46.994;15.498;2023-05-07T09:12:49;4.62;;;4.32;;
1987;SDS011;12775;46.994;15.498;2023-05-07T09:15:16;3.62;;;3.42;;
1987;SDS011;12775;46.994;15.498;2023-05-07T09:17:43;5.06;;;4.66;;
1987;SDS011;12775;46.994;15.498;2023-05-07T09:20:09;4.52;;;4.22;;
1987;SDS011;12775;46.994;15.498;2023-05-07T09:22:36;4.18;;;3.78;;
1987;SDS011;12775;46.994;15.498;2023-05-07T09:25:04;4.62;;;4.32;;
1987;SDS011;12775;46.994;15.498;2023-05-07T09:27:32;5.18;;;4.76;;
1987;SDS011;12775;46.994;15.498;2023-05-07T09:29:59;5.18;;;4.68;;
1987;SDS011;12775;46.994;15.498;2023-05-07T09:32:26;4.06;;;3.76;;
1987;SDS011;12775;46.994;15.498;2023-05-07T09:34:54;3.64;;;3.34;;
1987;SDS011;12775;46.994;15.498;2023-05-07T09:37:21;3.72;;;3.44;;
1987;SDS011;12775;46.994;15.498;2023-05-07T09:39:48;4.50;;;3.82;;
1987;SDS011;12775;46.994;15.498;2023-05-07T09:42:15;3.74;;;3.54;;
1987;SDS011;12775;46.994;15.498;2023-05-07T09:44:43;5.16;;;4.74;;
1987;SDS011;12775;46.994;15.498;2023-05-07T09:47:10;4.08;;;3.78;;
1987;SDS011;12775;46.994;15.498;2023-05-07T09:49:38;5.90;;;4.92;;
1987;SDS011;12775;46.994;15.498;2023-05-07T09:52:05;3.76;;;3.56;;
1987;SDS011;12775;46.994;15.498;2023-05-07T09:54:31;4.66;;;4.24;;
1987;SDS011;12775;46.994;15.498;2023-05-07T09:56:58;3.50;;;3.20;;
1987;SDS011;12775;46.994;15.498;2023-05-07T09:59:25;4.82;;;4.42;;
1987;SDS011;12775;46.994;15.498;2023-05-07T10:01:52;5.78;;;4.46;;
1987;SDS011;12775;46.994;15.498;2023-05-07T10:04:19;3.42;;;3.12;;
1987;SDS011;12775;46.994;15.498;2023-05-07T10:06:46;3.42;;;3.22;;
1987;SDS011;12775;46.994;15.498;2023-05-07T10:09:12;3.68;;;3.38;;
1987;SDS011;12775;46.994;15.498;2023-05-07T10:11:40;6.10;;;4.10;;
1987;SDS011;12775;46.994;15.498;2023-05-07T10:14:07;4.70;;;4.30;;
1987;SDS011;12775;46.994;15.498;2023-05-07T10:16:34;3.54;;;3.26;;
1987;SDS011;12775;46.994;15.498;2023-05-07T10:19:03;4.08;;;3.66;;
1987;SDS011;12775;46.994;15.498;2023-05-07T10:21:30;4.58;;;4.28;;
1987;SDS011;12775;46.994;15.498;2023-05-07T10:23:59;4.44;;;4.10;;
1987;SDS011;12775;46.994;15.498;2023-05-07T10:26:25;4.36;;;4.06;;
1987;SDS011;12775;46.994;15.498;2023-05-07T10:28:54;4.14;;;3.84;;
1987;SDS011;12775;46.994;15.498;2023-05-07T10:31:59;3.84;;;3.54;;
1987;SDS011;12775;46.994;15.498;2023-05-07T10:34:10;4.50;;;3.40;;
1987;SDS011;12775;46.994;15.498;2023-05-07T10:36:37;4.06;;;3.76;;
1987;SDS011;12775;46.994;15.498;2023-05-07T10:39:04;4.08;;;3.52;;
1987;SDS011;12775;46.994;15.498;2023-05-07T10:41:30;4.12;;;3.82;;
1987;SDS011;12775;46.994;15.498;2023-05-07T10:44:01;3.98;;;3.66;;
1987;SDS011;12775;46.994;15.498;2023-05-07T10:46:28;3.36;;;3.16;;
1987;SDS011;12775;46.994;15.498;2023-05-07T10:49:07;3.94;;;3.64;;
1987;SDS011;12775;46.994;15.498;2023-05-07T10:51:34;3.46;;;3.20;;
1987;SDS011;12775;46.994;15.498;2023-05-07T10:56:49;2.86;;;2.66;;
1987;SDS011;12775;46.994;15.498;2023-05-07T10:59:30;3.40;;;3.18;;
1987;SDS011;12775;46.994;15.498;2023-05-07T11:01:57;4.40;;;3.36;;
1987;SDS011;12775;46.994;15.498;2023-05-07T11:04:24;3.46;;;3.20;;
1987;SDS011;12775;46.994;15.498;2023-05-07T11:09:58;3.56;;;3.36;;
1987;SDS011;12775;46.994;15.498;2023-05-07T11:15:38;3.68;;;3.38;;
1987;SDS011;12775;46.994;15.498;2023-05-07T11:18:05;3.04;;;2.56;;
1987;SDS011;12775;46.994;15.498;2023-05-07T11:25:48;3.28;;;2.96;;
1987;SDS011;12775;46.994;15.498;2023-05-07T11:28:17;3.28;;;3.08;;
1987;SDS011;12775;46.994;15.498;2023-05-07T11:30:44;3.46;;;3.16;;
1987;SDS011;12775;46.994;15.498;2023-05-07T11:33:11;5.48;;;3.50;;
1987;SDS011;12775;46.994;15.498;2023-05-07T11:35:38;2.62;;;2.42;;
1987;SDS011;12775;46.994;15.498;2023-05-07T11:38:04;2.98;;;2.66;;
1987;SDS011;12775;46.994;15.498;2023-05-07T11:40:31;3.44;;;2.74;;
1987;SDS011;12775;46.994;15.498;2023-05-07T11:42:57;3.00;;;2.80;;
1987;SDS011;12775;46.994;15.498;2023-05-07T11:45:24;3.26;;;3.06;;
1987;SDS011;12775;46.994;15.498;2023-05-07T11:47:51;2.96;;;2.76;;
1987;SDS011;12775;46.994;15.498;2023-05-07T11:50:18;3.26;;;3.06;;
1987;SDS011;12775;46.994;15.498;2023-05-07T11:52:50;3.06;;;2.86;;
1987;SDS011;12775;46.994;15.498;2023-05-07T11:55:18;4.12;;;3.58;;
1987;SDS011;12775;46.994;15.498;2023-05-07T11:57:43;5.06;;;2.58;;
1987;SDS011;12775;46.994;15.498;2023-05-07T12:00:10;3.00;;;2.80;;
1987;SDS011;12775;46.994;15.498;2023-05-07T12:02:37;3.42;;;3.22;;
1987;SDS011;12775;46.994;15.498;2023-05-07T12:05:04;3.84;;;3.54;;
1987;SDS011;12775;46.994;15.498;2023-05-07T12:07:32;4.00;;;3.60;;
1987;SDS011;12775;46.994;15.498;2023-05-07T12:09:58;3.30;;;2.88;;
1987;SDS011;12775;46.994;15.498;2023-05-07T12:12:26;3.22;;;2.98;;
1987;SDS011;12775;46.994;15.498;2023-05-07T12:14:52;4.10;;;3.14;;
1987;SDS011;12775;46.994;15.498;2023-05-07T12:17:19;3.62;;;3.32;;
1987;SDS011;12775;46.994;15.498;2023-05-07T12:19:46;5.14;;;3.28;;
1987;SDS011;12775;46.994;15.498;2023-05-07T12:22:13;3.56;;;3.26;;
1987;SDS011;12775;46.994;15.498;2023-05-07T12:24:44;3.46;;;3.20;;
1987;SDS011;12775;46.994;15.498;2023-05-07T12:27:12;3.78;;;3.48;;
1987;SDS011;12775;46.994;15.498;2023-05-07T12:29:38;3.24;;;2.92;;
1987;SDS011;12775;46.994;15.498;2023-05-07T12:32:06;3.70;;;3.42;;
1987;SDS011;12775;46.994;15.498;2023-05-07T12:34:31;3.76;;;3.46;;
1987;SDS011;12775;46.994;15.498;2023-05-07T12:37:01;3.70;;;3.40;;
1987;SDS011;12775;46.994;15.498;2023-05-07T12:39:25;4.32;;;4.02;;
1987;SDS011;12775;46.994;15.498;2023-05-07T12:41:52;4.76;;;4.36;;
1987;SDS011;12775;46.994;15.498;2023-05-07T12:44:18;3.68;;;3.38;;
1987;SDS011;12775;46.994;15.498;2023-05-07T12:46:46;3.76;;;3.56;;
1987;SDS011;12775;46.994;15.498;2023-05-07T12:49:12;5.16;;;3.74;;
1987;SDS011;12775;46.994;15.498;2023-05-07T12:51:39;4.26;;;3.94;;
1987;SDS011;12775;46.994;15.498;2023-05-07T12:54:06;5.88;;;5.38;;
1987;SDS011;12775;46.994;15.498;2023-05-07T12:56:35;4.24;;;3.94;;
1987;SDS011;12775;46.994;15.498;2023-05-07T12:58:59;3.94;;;3.64;;
1987;SDS011;12775;46.994;15.498;2023-05-07T13:01:29;4.26;;;3.70;;
1987;SDS011;12775;46.994;15.498;2023-05-07T13:03:55;4.98;;;3.72;;
1987;SDS011;12775;46.994;15.498;2023-05-07T13:06:22;4.26;;;3.90;;
1987;SDS011;12775;46.994;15.498;2023-05-07T13:08:48;6.70;;;3.40;;
1987;SDS011;12775;46.994;15.498;2023-05-07T13:11:16;3.90;;;3.60;;
1987;SDS011;12775;46.994;15.498;2023-05-07T13:13:42;4.90;;;4.14;;
1987;SDS011;12775;46.994;15.498;2023-05-07T13:16:10;3.84;;;3.54;;
1987;SDS011;12775;46.994;15.498;2023-05-07T13:18:36;4.62;;;4.22;;
1987;SDS011;12775;46.994;15.498;2023-05-07T13:21:03;4.08;;;3.78;;
1987;SDS011;12775;46.994;15.498;2023-05-07T13:23:30;5.76;;;4.42;;
1987;SDS011;12775;46.994;15.498;2023-05-07T13:25:58;4.92;;;4.26;;
1987;SDS011;12775;46.994;15.498;2023-05-07T13:28:25;5.14;;;4.76;;
1987;SDS011;12775;46.994;15.498;2023-05-07T13:30:52;4.72;;;4.32;;
1987;SDS011;12775;46.994;15.498;2023-05-07T13:33:19;5.16;;;4.76;;
1987;SDS011;12775;46.994;15.498;2023-05-07T13:35:45;5.98;;;5.24;;
1987;SDS011;12775;46.994;15.498;2023-05-07T13:38:12;6.36;;;5.04;;
1987;SDS011;12775;46.994;15.498;2023-05-07T13:40:39;4.88;;;4.48;;
1987;SDS011;12775;46.994;15.498;2023-05-07T13:43:06;5.68;;;5.20;;
1987;SDS011;12775;46.994;15.498;2023-05-07T13:45:33;5.56;;;5.00;;
1987;SDS011;12775;46.994;15.498;2023-05-07T13:48:01;5.36;;;4.12;;
1987;SDS011;12775;46.994;15.498;2023-05-07T13:50:28;5.40;;;5.00;;
1987;SDS011;12775;46.994;15.498;2023-05-07T13:52:55;5.90;;;5.40;;
1987;SDS011;12775;46.994;15.498;2023-05-07T13:55:23;6.66;;;6.06;;
1987;SDS011;12775;46.994;15.498;2023-05-07T13:57:55;7.62;;;6.90;;
1987;SDS011;12775;46.994;15.498;2023-05-07T14:00:21;7.36;;;6.72;;
1987;SDS011;12775;46.994;15.498;2023-05-07T14:02:48;6.94;;;6.32;;
1987;SDS011;12775;46.994;15.498;2023-05-07T14:05:16;9.52;;;7.24;;
1987;SDS011;12775;46.994;15.498;2023-05-07T14:07:43;12.82;;;8.54;;
1987;SDS011;12775;46.994;15.498;2023-05-07T14:10:10;10.96;;;9.58;;
1987;SDS011;12775;46.994;15.498;2023-05-07T14:12:37;12.94;;;11.02;;
1987;SDS011;12775;46.994;15.498;2023-05-07T14:15:03;11.30;;;10.20;;
1987;SDS011;12775;46.994;15.498;2023-05-07T14:17:31;11.26;;;10.06;;
1987;SDS011;12775;46.994;15.498;2023-05-07T14:19:58;12.00;;;11.04;;
1987;SDS011;12775;46.994;15.498;2023-05-07T14:22:24;12.36;;;11.36;;
1987;SDS011;12775;46.994;15.498;2023-05-07T14:24:51;11.92;;;10.70;;
1987;SDS011;12775;46.994;15.498;2023-05-07T14:27:18;15.08;;;12.06;;
1987;SDS011;12775;46.994;15.498;2023-05-07T14:29:45;13.24;;;12.02;;
1987;SDS011;12775;46.994;15.498;2023-05-07T14:32:17;12.34;;;11.02;;
1987;SDS011;12775;46.994;15.498;2023-05-07T14:34:43;12.24;;;11.14;;
1987;SDS011;12775;46.994;15.498;2023-05-07T14:37:10;12.44;;;11.12;;
1987;SDS011;12775;46.994;15.498;2023-05-07T14:39:36;11.98;;;10.76;;
1987;SDS011;12775;46.994;15.498;2023-05-07T14:42:03;11.96;;;10.02;;
1987;SDS011;12775;46.994;15.498;2023-05-07T14:44:30;11.08;;;10.00;;
1987;SDS011;12775;46.994;15.498;2023-05-07T14:46:56;13.12;;;10.44;;
1987;SDS011;12775;46.994;15.498;2023-05-07T14:49:23;15.72;;;10.46;;
1987;SDS011;12775;46.994;15.498;2023-05-07T14:51:49;12.50;;;11.30;;
1987;SDS011;12775;46.994;15.498;2023-05-07T14:54:17;13.86;;;12.24;;